Agios Georgios I — SX9857 — position and weather

sailwx.info

Track history (hours):
 
Tides and Currents Weather Stations Pressure Air Temp Water Temp Dewpoint Dewpoint Depression Visibility Wind Speed Wind Dir Waves Ship Positions

Agios Georgios I

Last reported at 2016-Jul-22 18:24 UTC. Time now 2016-Jul-23 17:00 UTC.
Position N 37°59' E 024°42'.

Length 59 m; draft 5 m.

Type: Ship (hazmat cat B). MMSI: 239912000.

Date/timePositionNaut miles runAvg speedWind from/ knotsBaromVisibWave heightAir tempDewpointWater temp
2016-Jul-22 18:24N 37°59' E 024°42'6 7.4
2016-Jul-22 17:34N 37°53' E 024°41'23 2.7
2016-Jul-22 09:10N 37°36' E 025°00'4 7.1
2016-Jul-22 08:34N 37°34' E 025°04'4 4.3
2016-Jul-22 07:34N 37°32' E 025°09'0 0.0
2016-Jul-22 05:33N 37°32' E 025°09'0 0.0
2016-Jul-22 04:33N 37°32' E 025°09'1 0.9
2016-Jul-22 03:34N 37°32' E 025°09'13 0.6
2016-Jul-21 04:33N 37°19' E 025°07'7 7.3
2016-Jul-21 03:33N 37°14' E 025°13'7 7.1
2016-Jul-21 02:34N 37°09' E 025°20'3 3.3
2016-Jul-21 01:34N 37°06' E 025°22'0 0.0
2016-Jul-21 00:33N 37°06' E 025°22'0 0.0
2016-Jul-20 23:34N 37°06' E 025°22'0 0.0
2016-Jul-20 22:34N 37°06' E 025°22'0 0.0
2016-Jul-20 21:33N 37°06' E 025°22'1 0.7
2016-Jul-20 20:33N 37°06' E 025°22'0 0.1
2016-Jul-20 19:34N 37°06' E 025°22'1 0.6
2016-Jul-20 18:34N 37°06' E 025°22'0 0.0
2016-Jul-20 17:34N 37°06' E 025°22'0 0.0
2016-Jul-20 16:34N 37°06' E 025°22'0 0.4
2016-Jul-20 15:33N 37°06' E 025°22'2 2.2
2016-Jul-20 14:34N 37°04' E 025°20'0 0.0
2016-Jul-20 13:33N 37°04' E 025°20'0 0.0
2016-Jul-20 12:34N 37°04' E 025°20'0 0.0
2016-Jul-20 11:34N 37°04' E 025°20'0 0.0
2016-Jul-20 10:33N 37°04' E 025°20'0 0.0
2016-Jul-20 09:34N 37°04' E 025°20'0 0.0
2016-Jul-20 08:33N 37°04' E 025°20'0 0.0
2016-Jul-20 07:33N 37°04' E 025°20'7 6.7
2016-Jul-20 06:34N 37°11' E 025°18'6 5.4
2016-Jul-20 05:29N 37°09' E 025°11'6 0.3
2016-Jul-19 08:33N 37°07' E 025°04'8 7.6
2016-Jul-19 07:34N 37°12' E 024°57'7 7.2
2016-Jul-19 06:34N 37°17' E 024°50'30 7.1
2016-Jul-19 02:23N 37°30' E 024°17'9 8.5
2016-Jul-19 01:20N 37°33' E 024°06'7 8.4
2016-Jul-19 00:33N 37°35' E 023°59'8 8.4
2016-Jul-18 23:33N 37°38' E 023°49'8 8.1
2016-Jul-18 22:34N 37°43' E 023°41'9 8.7
2016-Jul-18 21:34N 37°51' E 023°37'6 6.5
2016-Jul-18 20:33N 37°57' E 023°35'0 0.0
2016-Jul-18 19:34N 37°57' E 023°35'0 0.0
2016-Jul-18 18:33N 37°57' E 023°35'0 0.0
2016-Jul-18 17:34N 37°57' E 023°35'0 0.0
2016-Jul-18 16:34N 37°57' E 023°35'0 0.0
2016-Jul-18 15:33N 37°57' E 023°35'0 0.0
2016-Jul-18 14:33N 37°57' E 023°35'0 0.0
2016-Jul-18 13:33N 37°57' E 023°35'0 0.0
2016-Jul-18 12:34N 37°57' E 023°35'0 0.0
2016-Jul-18 11:33N 37°57' E 023°35'0 0.0
2016-Jul-18 10:33N 37°57' E 023°35'0 0.0
2016-Jul-18 09:33N 37°57' E 023°35'0 0.0
2016-Jul-18 08:34N 37°57' E 023°35'0 0.0
2016-Jul-18 07:34N 37°57' E 023°35'0 0.0
2016-Jul-18 06:33N 37°57' E 023°35'0 0.0
2016-Jul-18 05:34N 37°57' E 023°35'3 3.3
2016-Jul-18 04:34N 37°54' E 023°36'7 7.3
2016-Jul-18 03:34N 37°48' E 023°40'7 7.0
2016-Jul-18 02:33N 37°42' E 023°45'7 6.8
2016-Jul-18 01:33N 37°38' E 023°52'7 7.1
2016-Jul-18 00:34N 37°35' E 024°00'9 7.5
2016-Jul-17 23:22N 37°32' E 024°11'16 7.6
2016-Jul-17 21:18N 37°31' E 024°30'5 7.3
2016-Jul-17 20:33N 37°31' E 024°37'8 7.9
2016-Jul-17 19:33N 37°31' E 024°47'13 0.4
2016-Jul-16 08:33N 37°29' E 025°03'6 6.4
2016-Jul-16 07:33N 37°32' E 025°09'0 0.0
2016-Jul-16 06:33N 37°32' E 025°09'0 0.0
2016-Jul-16 04:33N 37°32' E 025°09'4 3.8
2016-Jul-16 03:33N 37°31' E 025°14'8 7.9
2016-Jul-16 02:33N 37°32' E 025°24'7 7.4
2016-Jul-16 01:33N 37°34' E 025°33'8 7.6
2016-Jul-16 00:27N 37°36' E 025°43'  
Track history (hours):
 
Tides and Currents Weather Stations Pressure Air Temp Water Temp Dewpoint Dewpoint Depression Visibility Wind Speed Wind Dir Waves Ship Positions

Agios Georgios I

Last reported at 2016-Jul-22 18:24 UTC. Time now 2016-Jul-23 17:00 UTC.
Position N 37°59' E 024°42'.

Length 59 m; draft 5 m.

Type: Ship (hazmat cat B). MMSI: 239912000.

Date/timePositionNaut miles runAvg speedWind from/ knotsBaromVisibWave heightAir tempDewpointWater temp
2016-Jul-22 18:24N 37°59' E 024°42'6 7.4
2016-Jul-22 17:34N 37°53' E 024°41'23 2.7
2016-Jul-22 09:10N 37°36' E 025°00'4 7.1
2016-Jul-22 08:34N 37°34' E 025°04'4 4.3
2016-Jul-22 07:34N 37°32' E 025°09'0 0.0
2016-Jul-22 05:33N 37°32' E 025°09'0 0.0
2016-Jul-22 04:33N 37°32' E 025°09'1 0.9
2016-Jul-22 03:34N 37°32' E 025°09'13 0.6
2016-Jul-21 04:33N 37°19' E 025°07'7 7.3
2016-Jul-21 03:33N 37°14' E 025°13'7 7.1
2016-Jul-21 02:34N 37°09' E 025°20'3 3.3
2016-Jul-21 01:34N 37°06' E 025°22'0 0.0
2016-Jul-21 00:33N 37°06' E 025°22'0 0.0
2016-Jul-20 23:34N 37°06' E 025°22'0 0.0
2016-Jul-20 22:34N 37°06' E 025°22'0 0.0
2016-Jul-20 21:33N 37°06' E 025°22'1 0.7
2016-Jul-20 20:33N 37°06' E 025°22'0 0.1
2016-Jul-20 19:34N 37°06' E 025°22'1 0.6
2016-Jul-20 18:34N 37°06' E 025°22'0 0.0
2016-Jul-20 17:34N 37°06' E 025°22'0 0.0
2016-Jul-20 16:34N 37°06' E 025°22'0 0.4
2016-Jul-20 15:33N 37°06' E 025°22'2 2.2
2016-Jul-20 14:34N 37°04' E 025°20'0 0.0
2016-Jul-20 13:33N 37°04' E 025°20'0 0.0
2016-Jul-20 12:34N 37°04' E 025°20'0 0.0
2016-Jul-20 11:34N 37°04' E 025°20'0 0.0
2016-Jul-20 10:33N 37°04' E 025°20'0 0.0
2016-Jul-20 09:34N 37°04' E 025°20'0 0.0
2016-Jul-20 08:33N 37°04' E 025°20'0 0.0
2016-Jul-20 07:33N 37°04' E 025°20'7 6.7
2016-Jul-20 06:34N 37°11' E 025°18'6 5.4
2016-Jul-20 05:29N 37°09' E 025°11'6 0.3
2016-Jul-19 08:33N 37°07' E 025°04'8 7.6
2016-Jul-19 07:34N 37°12' E 024°57'7 7.2
2016-Jul-19 06:34N 37°17' E 024°50'30 7.1
2016-Jul-19 02:23N 37°30' E 024°17'9 8.5
2016-Jul-19 01:20N 37°33' E 024°06'7 8.4
2016-Jul-19 00:33N 37°35' E 023°59'8 8.4
2016-Jul-18 23:33N 37°38' E 023°49'8 8.1
2016-Jul-18 22:34N 37°43' E 023°41'9 8.7
2016-Jul-18 21:34N 37°51' E 023°37'6 6.5
2016-Jul-18 20:33N 37°57' E 023°35'0 0.0
2016-Jul-18 19:34N 37°57' E 023°35'0 0.0
2016-Jul-18 18:33N 37°57' E 023°35'0 0.0
2016-Jul-18 17:34N 37°57' E 023°35'0 0.0
2016-Jul-18 16:34N 37°57' E 023°35'0 0.0
2016-Jul-18 15:33N 37°57' E 023°35'0 0.0
2016-Jul-18 14:33N 37°57' E 023°35'0 0.0
2016-Jul-18 13:33N 37°57' E 023°35'0 0.0
2016-Jul-18 12:34N 37°57' E 023°35'0 0.0
2016-Jul-18 11:33N 37°57' E 023°35'0 0.0
2016-Jul-18 10:33N 37°57' E 023°35'0 0.0
2016-Jul-18 09:33N 37°57' E 023°35'0 0.0
2016-Jul-18 08:34N 37°57' E 023°35'0 0.0
2016-Jul-18 07:34N 37°57' E 023°35'0 0.0
2016-Jul-18 06:33N 37°57' E 023°35'0 0.0
2016-Jul-18 05:34N 37°57' E 023°35'3 3.3
2016-Jul-18 04:34N 37°54' E 023°36'7 7.3
2016-Jul-18 03:34N 37°48' E 023°40'7 7.0
2016-Jul-18 02:33N 37°42' E 023°45'7 6.8
2016-Jul-18 01:33N 37°38' E 023°52'7 7.1
2016-Jul-18 00:34N 37°35' E 024°00'9 7.5
2016-Jul-17 23:22N 37°32' E 024°11'16 7.6
2016-Jul-17 21:18N 37°31' E 024°30'5 7.3
2016-Jul-17 20:33N 37°31' E 024°37'8 7.9
2016-Jul-17 19:33N 37°31' E 024°47'13 0.4
2016-Jul-16 08:33N 37°29' E 025°03'6 6.4
2016-Jul-16 07:33N 37°32' E 025°09'0 0.0
2016-Jul-16 06:33N 37°32' E 025°09'0 0.0
2016-Jul-16 04:33N 37°32' E 025°09'4 3.8
2016-Jul-16 03:33N 37°31' E 025°14'8 7.9
2016-Jul-16 02:33N 37°32' E 025°24'7 7.4
2016-Jul-16 01:33N 37°34' E 025°33'8 7.6
2016-Jul-16 00:27N 37°36' E 025°43'  

Dump ship's entire track history